Time;durP1;ratioP1;P1;durP2;ratioP2;P2;SDS_P1;SDS_P2;PMS_P1;PMS_P2;Temp;Humidity;BMP_temperature;BMP_pressure;BME280_temperature;BME280_humidity;BME280_pressure;Samples;Min_cycle;Max_cycle;Signal;HPM_P1;HPM_P2
2022/10/06 00:01:23;;;;;;;4.50;1.10;;;18.10;80.90;;;;;;5078036;28;20490;-76
2022/10/06 00:03:49;;;;;;;5.47;1.40;;;18.10;80.90;;;;;;5092209;28;20036;-76
2022/10/06 00:06:15;;;;;;;5.20;0.93;;;18.10;81.00;;;;;;5092784;28;20051;-77
2022/10/06 00:08:41;;;;;;;5.15;1.13;;;18.10;81.00;;;;;;5091347;28;20038;-75
2022/10/06 00:11:09;;;;;;;3.38;1.10;;;18.10;81.10;;;;;;5113443;28;20098;-76
2022/10/06 00:13:35;;;;;;;12.02;1.42;;;18.20;81.20;;;;;;5079592;28;20078;-75
2022/10/06 00:16:01;;;;;;;7.70;1.38;;;18.20;81.30;;;;;;5093835;28;20024;-76
2022/10/06 00:18:27;;;;;;;5.18;1.10;;;18.20;81.30;;;;;;5094097;28;20482;-76
2022/10/06 00:20:57;;;;;;;4.18;1.30;;;18.20;81.30;;;;;;5076094;28;20024;-76
2022/10/06 00:23:22;;;;;;;4.05;1.10;;;18.20;81.30;;;;;;5074970;28;20111;-76
2022/10/06 00:25:48;;;;;;;3.97;1.23;;;18.20;81.40;;;;;;5092500;28;20054;-75
2022/10/06 00:28:14;;;;;;;6.88;1.35;;;18.20;81.40;;;;;;5092986;28;20036;-76
2022/10/06 00:30:40;;;;;;;3.40;1.25;;;18.20;81.30;;;;;;5092498;28;20478;-76
2022/10/06 00:33:05;;;;;;;4.55;1.15;;;18.20;81.30;;;;;;5091866;28;20077;-76
2022/10/06 00:35:33;;;;;;;2.45;0.98;;;18.20;81.30;;;;;;5072352;28;20530;-76
2022/10/06 00:38:02;;;;;;;2.55;1.05;;;18.20;81.30;;;;;;5072058;28;20490;-76
2022/10/06 00:40:28;;;;;;;3.95;1.52;;;18.20;81.50;;;;;;5072228;28;20013;-76
2022/10/06 00:43:01;;;;;;;5.85;1.30;;;18.20;81.40;;;;;;5072347;28;20081;-77
2022/10/06 00:45:41;;;;;;;4.85;1.35;;;18.20;81.40;;;;;;5072114;28;20023;-76
2022/10/06 00:48:10;;;;;;;5.03;1.25;;;18.20;81.50;;;;;;5072018;28;20032;-76
2022/10/06 00:50:36;;;;;;;5.78;1.17;;;18.20;81.50;;;;;;5073217;28;20021;-77
2022/10/06 00:53:02;;;;;;;4.60;1.27;;;18.20;81.50;;;;;;5071815;28;20048;-77
2022/10/06 00:55:29;;;;;;;4.68;1.52;;;18.20;81.50;;;;;;5072088;28;20027;-76
2022/10/06 00:57:55;;;;;;;4.13;1.30;;;18.20;81.40;;;;;;5072604;28;20433;-76
2022/10/06 01:00:21;;;;;;;4.40;1.27;;;18.20;81.50;;;;;;5071943;28;20111;-76
2022/10/06 01:03:27;;;;;;;3.67;1.30;;;18.20;81.40;;;;;;5091156;28;20031;-76
2022/10/06 01:05:53;;;;;;;3.55;0.98;;;18.20;81.50;;;;;;5034035;28;20025;-76
2022/10/06 01:08:20;;;;;;;2.92;1.20;;;18.20;81.50;;;;;;5039964;28;20032;-76
2022/10/06 01:10:46;;;;;;;3.00;1.05;;;18.20;81.50;;;;;;5054109;28;20059;-76
2022/10/06 01:13:12;;;;;;;3.85;1.10;;;18.20;81.50;;;;;;5053940;28;20133;-76
2022/10/06 01:15:39;;;;;;;5.53;1.30;;;18.20;81.50;;;;;;5037669;28;20482;-75
2022/10/06 01:18:11;;;;;;;2.63;1.05;;;18.20;81.50;;;;;;5053877;28;20558;-75
2022/10/06 01:20:38;;;;;;;4.25;1.35;;;18.20;81.50;;;;;;5038116;28;20116;-76
2022/10/06 01:23:05;;;;;;;3.67;0.98;;;18.20;81.60;;;;;;5037348;28;20025;-75
2022/10/06 01:25:31;;;;;;;4.32;1.35;;;18.20;81.50;;;;;;5037435;28;20036;-76
2022/10/06 01:27:57;;;;;;;3.63;0.90;;;18.20;81.50;;;;;;5037082;28;20514;-75
2022/10/06 01:30:36;;;;;;;4.28;1.10;;;18.20;81.50;;;;;;5037125;28;20099;-75
2022/10/06 01:33:02;;;;;;;1.55;0.90;;;18.20;81.50;;;;;;5037326;28;20067;-75
2022/10/06 01:35:28;;;;;;;4.40;1.02;;;18.20;81.60;;;;;;5036836;28;20052;-76
2022/10/06 01:37:53;;;;;;;4.78;1.10;;;18.20;81.60;;;;;;5070125;28;20491;-76
2022/10/06 01:40:19;;;;;;;6.30;1.60;;;18.20;81.60;;;;;;5101791;28;20498;-75
2022/10/06 01:42:45;;;;;;;5.57;1.38;;;18.20;81.50;;;;;;5094719;28;20031;-76
2022/10/06 01:45:11;;;;;;;3.47;1.05;;;18.20;81.50;;;;;;5112858;28;20030;-76
2022/10/06 01:47:36;;;;;;;4.60;1.10;;;18.20;81.50;;;;;;5111809;28;20030;-76
2022/10/06 01:50:04;;;;;;;3.47;0.90;;;18.20;81.50;;;;;;5111702;28;20421;-76
2022/10/06 01:52:29;;;;;;;4.32;1.33;;;18.20;81.60;;;;;;5111425;28;20494;-76
2022/10/06 01:54:55;;;;;;;5.22;1.38;;;18.20;81.50;;;;;;5111644;28;20027;-76
2022/10/06 01:57:21;;;;;;;3.17;0.93;;;18.20;81.50;;;;;;5112517;28;20034;-75
2022/10/06 01:59:47;;;;;;;3.28;0.80;;;18.10;81.50;;;;;;5113312;28;20049;-76
2022/10/06 02:02:12;;;;;;;5.88;1.40;;;18.20;81.50;;;;;;5096587;28;20036;-75
2022/10/06 02:04:38;;;;;;;2.88;0.90;;;18.20;81.50;;;;;;5092255;28;20028;-75
2022/10/06 02:07:04;;;;;;;3.72;1.65;;;18.20;81.60;;;;;;5092260;28;20041;-75
2022/10/06 02:09:29;;;;;;;4.80;1.35;;;18.20;81.50;;;;;;5090502;28;20026;-75
2022/10/06 02:11:55;;;;;;;5.25;1.17;;;18.20;81.50;;;;;;5094229;28;20032;-75
2022/10/06 02:14:21;;;;;;;3.85;0.98;;;18.10;81.50;;;;;;5112606;28;20099;-75
2022/10/06 02:16:47;;;;;;;3.72;1.00;;;18.20;81.60;;;;;;5111291;28;20028;-75
2022/10/06 02:19:12;;;;;;;4.32;1.30;;;18.20;81.60;;;;;;5112546;28;20038;-75
2022/10/06 02:21:38;;;;;;;5.75;1.30;;;18.20;81.60;;;;;;5112739;28;20478;-75
2022/10/06 02:24:04;;;;;;;5.25;1.48;;;18.20;81.60;;;;;;5094327;28;20019;-75
2022/10/06 02:26:30;;;;;;;4.63;1.23;;;18.20;81.60;;;;;;5111162;28;20030;-76
2022/10/06 02:28:56;;;;;;;2.97;1.20;;;18.20;81.60;;;;;;5094649;28;20485;-76
2022/10/06 02:31:22;;;;;;;4.90;1.00;;;18.20;81.60;;;;;;5111326;28;20074;-75
2022/10/06 02:33:47;;;;;;;1.33;0.75;;;18.20;81.50;;;;;;5112516;28;20470;-75
2022/10/06 02:36:14;;;;;;;3.03;1.13;;;18.20;81.50;;;;;;5112507;28;20030;-76
2022/10/06 02:38:40;;;;;;;3.63;1.10;;;18.20;81.50;;;;;;5112269;28;20031;-76
2022/10/06 02:41:06;;;;;;;2.92;1.10;;;18.20;81.50;;;;;;5110913;28;20020;-76
2022/10/06 02:43:32;;;;;;;4.50;1.27;;;18.20;81.50;;;;;;5111419;28;20020;-76
2022/10/06 02:46:00;;;;;;;3.88;1.10;;;18.10;81.40;;;;;;5113428;28;20019;-76
2022/10/06 02:48:26;;;;;;;5.30;1.40;;;18.20;81.50;;;;;;5114967;28;20024;-75
2022/10/06 02:50:54;;;;;;;3.28;1.15;;;18.20;81.50;;;;;;5115136;28;20038;-75
2022/10/06 02:53:19;;;;;;;5.03;1.42;;;18.20;81.60;;;;;;5115678;28;20055;-76
2022/10/06 02:55:45;;;;;;;4.63;1.10;;;18.10;81.50;;;;;;5115930;28;20098;-76
2022/10/06 02:58:10;;;;;;;2.67;1.00;;;18.20;81.50;;;;;;5114804;28;20024;-76
2022/10/06 03:00:36;;;;;;;2.90;1.10;;;18.10;81.50;;;;;;5114408;28;20023;-75
2022/10/06 03:03:02;;;;;;;4.25;1.00;;;18.20;81.50;;;;;;5095351;28;20020;-76
2022/10/06 03:05:29;;;;;;;4.93;1.38;;;18.20;81.60;;;;;;5095896;28;20484;-76
2022/10/06 03:07:54;;;;;;;3.08;1.00;;;18.20;81.60;;;;;;5096856;28;20516;-76
2022/10/06 03:10:20;;;;;;;4.13;1.10;;;18.20;81.60;;;;;;5115614;28;20028;-75
2022/10/06 03:12:46;;;;;;;3.40;0.88;;;18.20;81.50;;;;;;5114582;28;20020;-76
2022/10/06 03:15:11;;;;;;;3.38;1.05;;;18.20;81.50;;;;;;5115968;28;20024;-76
2022/10/06 03:17:37;;;;;;;2.72;1.17;;;18.20;81.60;;;;;;5115795;28;20024;-75
2022/10/06 03:20:03;;;;;;;3.30;0.98;;;18.20;81.50;;;;;;5115558;28;20034;-75
2022/10/06 03:22:29;;;;;;;4.95;1.10;;;18.10;81.50;;;;;;5114525;28;20016;-76
2022/10/06 03:24:54;;;;;;;6.28;1.60;;;18.20;81.50;;;;;;5114277;28;20031;-76
2022/10/06 03:27:20;;;;;;;2.10;1.10;;;18.20;81.60;;;;;;5115246;28;20069;-76
2022/10/06 03:29:45;;;;;;;7.47;1.10;;;18.20;81.60;;;;;;5115461;28;20031;-76
2022/10/06 03:32:11;;;;;;;5.97;1.30;;;18.20;81.60;;;;;;5115559;28;20023;-76
2022/10/06 03:34:37;;;;;;;6.15;1.00;;;18.20;81.60;;;;;;5115346;28;20409;-76
2022/10/06 03:37:02;;;;;;;4.20;1.10;;;18.20;81.50;;;;;;5115120;28;20035;-76
2022/10/06 03:39:28;;;;;;;4.45;1.27;;;18.10;81.50;;;;;;5115033;28;20031;-76
2022/10/06 03:41:53;;;;;;;3.83;1.25;;;18.20;81.60;;;;;;5115162;28;20022;-75
2022/10/06 03:44:21;;;;;;;3.97;1.20;;;18.10;81.50;;;;;;5113920;28;20031;-76
2022/10/06 03:46:47;;;;;;;4.22;0.90;;;18.20;81.50;;;;;;5113940;28;20397;-76
2022/10/06 03:49:13;;;;;;;2.80;1.05;;;18.20;81.50;;;;;;5115086;28;20016;-76
2022/10/06 03:51:40;;;;;;;4.65;1.15;;;18.20;81.60;;;;;;5113557;28;20085;-76
2022/10/06 03:54:09;;;;;;;4.35;0.80;;;18.20;81.50;;;;;;5113573;28;20028;-75
2022/10/06 03:56:36;;;;;;;4.55;1.40;;;18.20;81.50;;;;;;5097004;28;20031;-76
2022/10/06 03:59:03;;;;;;;2.97;1.15;;;18.20;81.50;;;;;;5114955;28;20020;-76
2022/10/06 04:01:31;;;;;;;5.65;1.00;;;18.10;81.40;;;;;;5088118;28;20425;-76
2022/10/06 04:03:57;;;;;;;3.65;1.23;;;18.20;81.50;;;;;;5076301;28;20186;-76
2022/10/06 04:06:23;;;;;;;4.40;1.20;;;18.20;81.50;;;;;;5076148;28;20044;-76
2022/10/06 04:08:49;;;;;;;2.75;0.95;;;18.20;81.50;;;;;;5103486;28;20059;-76
2022/10/06 04:11:20;;;;;;;2.83;1.20;;;18.20;81.50;;;;;;5096754;28;20103;-76
2022/10/06 04:13:46;;;;;;;2.92;1.23;;;18.20;81.50;;;;;;5113591;28;20147;-75
2022/10/06 04:16:12;;;;;;;3.58;0.90;;;18.20;81.60;;;;;;5113138;28;20023;-76
2022/10/06 04:18:38;;;;;;;3.60;1.00;;;18.20;81.50;;;;;;5114408;27;20028;-76
2022/10/06 04:21:04;;;;;;;2.58;0.90;;;18.20;81.50;;;;;;5114301;28;20011;-75
2022/10/06 04:23:30;;;;;;;3.22;1.05;;;18.20;81.50;;;;;;5096469;28;20103;-75
2022/10/06 04:26:08;;;;;;;2.13;0.93;;;18.20;81.50;;;;;;5114288;28;20460;-76
2022/10/06 04:28:37;;;;;;;6.40;0.90;;;18.20;81.50;;;;;;5113232;28;20114;-75
2022/10/06 04:31:04;;;;;;;2.03;0.80;;;18.10;81.40;;;;;;5113078;28;20027;-76
2022/10/06 04:33:33;;;;;;;2.97;1.10;;;18.10;81.50;;;;;;5113057;28;20486;-75
2022/10/06 04:36:03;;;;;;;4.85;1.13;;;18.10;81.50;;;;;;5112901;28;20024;-75
2022/10/06 04:38:31;;;;;;;3.35;0.80;;;18.20;81.50;;;;;;5095858;28;20478;-75
2022/10/06 04:41:12;;;;;;;6.13;1.40;;;18.10;81.50;;;;;;5096220;28;20042;-75
2022/10/06 04:43:39;;;;;;;4.38;1.10;;;18.10;81.40;;;;;;5112823;28;20466;-76
2022/10/06 04:46:04;;;;;;;2.75;0.90;;;18.10;81.40;;;;;;5096063;28;20024;-75
2022/10/06 04:48:30;;;;;;;4.00;0.95;;;18.10;81.40;;;;;;5095727;28;20393;-75
2022/10/06 04:51:00;;;;;;;1.80;0.85;;;18.10;82.40;;;;;;5107833;28;20020;-75
2022/10/06 04:53:26;;;;;;;3.92;1.02;;;18.10;81.40;;;;;;5078963;28;20434;-75
2022/10/06 04:56:02;;;;;;;4.18;1.35;;;18.10;81.40;;;;;;5075028;28;20021;-75
2022/10/06 04:58:31;;;;;;;2.15;0.90;;;18.10;81.40;;;;;;5071713;28;20135;-76
2022/10/06 05:00:58;;;;;;;4.00;1.23;;;18.10;81.50;;;;;;5076024;28;20012;-76
2022/10/06 05:03:24;;;;;;;4.90;1.13;;;18.10;81.40;;;;;;5091854;28;20031;-76
2022/10/06 05:05:50;;;;;;;3.83;1.10;;;18.10;81.50;;;;;;5093062;28;20020;-76
2022/10/06 05:08:15;;;;;;;3.65;1.27;;;18.10;81.50;;;;;;5098017;28;20029;-76
2022/10/06 05:10:41;;;;;;;4.72;1.25;;;18.10;81.50;;;;;;5113413;28;20030;-76
2022/10/06 05:13:10;;;;;;;1.50;0.60;;;18.10;81.50;;;;;;5112249;28;20038;-76
2022/10/06 05:15:36;;;;;;;3.70;1.08;;;18.10;81.50;;;;;;5113376;28;20020;-76
2022/10/06 05:18:02;;;;;;;2.88;0.95;;;18.10;81.50;;;;;;5096037;28;20042;-76
2022/10/06 05:20:28;;;;;;;4.95;0.95;;;18.10;81.60;;;;;;5085067;28;20469;-75
2022/10/06 05:22:53;;;;;;;5.85;1.13;;;18.10;81.50;;;;;;5089920;28;20018;-74
2022/10/06 05:25:19;;;;;;;5.72;1.15;;;18.10;80.00;;;;;;5093317;28;20016;-74
2022/10/06 05:27:45;;;;;;;3.88;1.00;;;18.10;79.50;;;;;;5093175;28;20027;-75
2022/10/06 05:30:10;;;;;;;5.00;1.75;;;18.00;79.50;;;;;;5091936;28;20387;-74
2022/10/06 05:32:36;;;;;;;4.28;1.50;;;18.00;79.30;;;;;;5093083;28;20485;-74
2022/10/06 05:35:02;;;;;;;2.95;0.98;;;18.00;79.30;;;;;;5090458;28;20548;-74
2022/10/06 05:37:27;;;;;;;3.67;1.27;;;18.00;79.50;;;;;;5092868;28;20035;-75
2022/10/06 05:39:53;;;;;;;4.45;1.15;;;18.00;79.30;;;;;;5092661;28;20439;-75
2022/10/06 05:42:19;;;;;;;4.10;1.40;;;18.00;79.30;;;;;;5091712;28;20569;-74
2022/10/06 05:44:44;;;;;;;6.35;1.10;;;18.00;79.10;;;;;;5092944;28;20012;-75
2022/10/06 05:47:10;;;;;;;5.80;1.15;;;18.00;79.00;;;;;;5091673;28;20027;-75
2022/10/06 05:49:35;;;;;;;3.55;0.77;;;18.00;78.90;;;;;;5092626;28;20024;-75
2022/10/06 05:52:01;;;;;;;6.47;1.33;;;18.00;79.10;;;;;;5092565;28;20048;-75
2022/10/06 05:54:27;;;;;;;3.28;0.85;;;18.00;79.00;;;;;;5092682;28;20024;-75
2022/10/06 05:56:53;;;;;;;5.05;1.08;;;17.90;78.90;;;;;;5092885;28;20039;-75
2022/10/06 05:59:18;;;;;;;4.30;0.98;;;17.90;78.80;;;;;;5091678;28;20016;-75
2022/10/06 06:01:44;;;;;;;4.65;1.00;;;17.90;78.80;;;;;;5092664;28;20028;-75
2022/10/06 06:04:11;;;;;;;3.67;1.27;;;17.90;78.90;;;;;;5091273;28;20028;-75
2022/10/06 06:06:38;;;;;;;4.07;1.10;;;17.90;78.80;;;;;;5091370;28;20568;-75
2022/10/06 06:09:09;;;;;;;3.30;0.75;;;17.90;78.90;;;;;;5105047;28;20532;-75
2022/10/06 06:11:36;;;;;;;3.55;0.77;;;17.90;78.80;;;;;;5113163;28;20042;-75
2022/10/06 06:14:04;;;;;;;2.42;0.82;;;17.90;78.90;;;;;;5111617;28;20040;-74
2022/10/06 06:16:30;;;;;;;3.03;1.42;;;17.90;78.90;;;;;;5095080;28;20020;-74
2022/10/06 06:18:56;;;;;;;5.63;1.33;;;17.90;78.90;;;;;;5091292;28;20028;-74
2022/10/06 06:21:21;;;;;;;5.28;1.20;;;17.90;78.90;;;;;;5078143;28;20028;-74
2022/10/06 06:23:47;;;;;;;4.88;1.00;;;17.90;78.80;;;;;;5095409;28;20020;-74
2022/10/06 06:26:23;;;;;;;3.58;0.88;;;17.90;78.90;;;;;;5078897;28;20108;-75
2022/10/06 06:28:53;;;;;;;3.83;0.90;;;17.90;78.70;;;;;;5079695;28;20500;-74
2022/10/06 06:31:25;;;;;;;5.03;1.20;;;17.90;78.80;;;;;;5093420;28;20024;-74
2022/10/06 06:33:51;;;;;;;5.17;1.33;;;17.90;78.80;;;;;;5086884;28;20028;-75
2022/10/06 06:36:21;;;;;;;5.07;1.27;;;17.90;78.90;;;;;;5077416;28;20479;-75
2022/10/06 06:38:50;;;;;;;6.03;1.10;;;17.90;78.90;;;;;;5094771;28;20024;-75
2022/10/06 06:41:20;;;;;;;5.05;1.10;;;17.80;78.90;;;;;;5095990;28;20511;-75
2022/10/06 06:43:46;;;;;;;13.88;1.92;;;17.80;78.90;;;;;;5094781;28;20024;-75
2022/10/06 06:46:13;;;;;;;8.30;1.67;;;17.80;79.00;;;;;;5092874;28;20105;-75
2022/10/06 06:48:40;;;;;;;14.52;2.58;;;17.80;78.90;;;;;;5077755;28;20117;-76
2022/10/06 06:51:06;;;;;;;10.80;2.05;;;17.80;79.00;;;;;;5094362;28;20020;-75
2022/10/06 06:53:32;;;;;;;16.50;2.53;;;17.80;79.00;;;;;;5095772;28;20119;-75
2022/10/06 06:55:58;;;;;;;12.35;2.30;;;17.80;79.00;;;;;;5094593;28;20051;-75
2022/10/06 06:58:23;;;;;;;9.50;1.98;;;17.80;79.10;;;;;;5094311;28;20121;-75
2022/10/06 07:00:49;;;;;;;10.45;2.30;;;17.80;79.10;;;;;;5094097;28;20069;-75
2022/10/06 07:03:17;;;;;;;13.90;2.40;;;17.80;79.20;;;;;;5093035;28;20110;-75
2022/10/06 07:05:45;;;;;;;12.10;3.03;;;17.80;79.20;;;;;;5077249;28;20016;-75
2022/10/06 07:08:14;;;;;;;15.57;3.35;;;17.80;79.20;;;;;;5099267;28;20027;-75
2022/10/06 07:10:40;;;;;;;15.68;2.47;;;17.80;79.30;;;;;;5114502;28;20435;-76
2022/10/06 07:13:06;;;;;;;17.13;2.95;;;17.80;79.30;;;;;;5114710;28;20027;-75
2022/10/06 07:26:34;;;;;;;19.40;2.97;;;17.80;79.30;;;;;;5058730;28;20036;-75
2022/10/06 07:28:59;;;;;;;13.93;2.90;;;17.80;79.30;;;;;;5072678;28;20036;-76
2022/10/06 07:31:30;;;;;;;14.00;3.35;;;17.80;79.40;;;;;;5071804;28;20498;-75
2022/10/06 07:33:56;;;;;;;15.68;3.90;;;17.80;79.40;;;;;;5056609;28;20150;-75
2022/10/06 07:36:21;;;;;;;14.32;3.10;;;17.80;79.40;;;;;;5055964;28;20524;-75
2022/10/06 07:38:47;;;;;;;19.45;3.47;;;17.80;79.50;;;;;;5055672;28;20669;-75
2022/10/06 07:41:13;;;;;;;16.60;3.08;;;17.70;79.40;;;;;;5055691;28;20130;-76
2022/10/06 07:43:39;;;;;;;10.70;2.63;;;17.70;79.30;;;;;;5072450;28;20029;-75
2022/10/06 07:46:09;;;;;;;17.75;3.33;;;17.70;79.40;;;;;;5072232;28;20032;-75
2022/10/06 07:48:36;;;;;;;15.85;3.70;;;17.70;79.30;;;;;;5072296;28;20050;-75
2022/10/06 07:51:05;;;;;;;15.20;3.03;;;17.70;79.40;;;;;;5072355;28;20028;-76
2022/10/06 07:53:31;;;;;;;15.30;3.22;;;17.70;79.40;;;;;;5056132;28;20055;-75
2022/10/06 07:56:03;;;;;;;13.48;3.03;;;17.70;79.40;;;;;;5055444;28;20032;-75
2022/10/06 07:58:28;;;;;;;17.83;3.88;;;17.70;79.40;;;;;;5091759;28;20103;-76
2022/10/06 08:00:54;;;;;;;12.52;3.47;;;17.70;79.40;;;;;;5110899;28;20475;-75
2022/10/06 08:03:20;;;;;;;14.35;3.05;;;17.70;79.40;;;;;;5093164;28;20150;-76
2022/10/06 08:05:55;;;;;;;16.02;3.55;;;17.70;80.40;;;;;;5094291;28;20024;-75
2022/10/06 08:08:21;;;;;;;10.45;3.05;;;17.70;79.40;;;;;;5099510;28;20009;-75
2022/10/06 08:10:57;;;;;;;12.93;3.55;;;17.70;79.40;;;;;;5113341;28;20127;-75
2022/10/06 08:13:22;;;;;;;16.15;3.50;;;17.70;79.30;;;;;;5114364;28;20032;-76
2022/10/06 08:15:49;;;;;;;13.52;2.85;;;17.70;79.40;;;;;;5096306;28;20031;-75
2022/10/06 08:18:15;;;;;;;15.77;3.60;;;17.70;79.40;;;;;;5114552;28;20019;-75
2022/10/06 08:20:41;;;;;;;11.20;2.90;;;17.70;79.40;;;;;;5096346;28;20474;-75
2022/10/06 08:23:09;;;;;;;14.95;3.67;;;17.70;79.40;;;;;;5113161;28;20016;-75
2022/10/06 08:25:41;;;;;;;16.65;3.63;;;17.70;79.40;;;;;;5096596;28;20024;-75
2022/10/06 08:28:08;;;;;;;11.98;2.70;;;17.70;79.40;;;;;;5097059;28;20050;-75
2022/10/06 08:30:33;;;;;;;15.93;4.10;;;17.70;79.40;;;;;;5114224;28;20027;-75
2022/10/06 08:32:59;;;;;;;10.27;3.05;;;17.70;79.40;;;;;;5114129;28;20064;-75
2022/10/06 08:35:25;;;;;;;12.95;3.17;;;17.70;79.40;;;;;;5112930;28;20084;-75
2022/10/06 08:37:52;;;;;;;15.45;3.88;;;17.70;79.40;;;;;;5112710;28;20081;-75
2022/10/06 08:40:17;;;;;;;11.65;3.28;;;17.60;79.30;;;;;;5112802;28;20481;-75
2022/10/06 08:42:45;;;;;;;15.05;3.30;;;17.70;79.30;;;;;;5095173;28;20041;-76
2022/10/06 08:45:16;;;;;;;12.63;3.15;;;17.60;79.30;;;;;;5112289;28;20023;-75
2022/10/06 08:48:03;;;;;;;16.23;3.35;;;17.60;79.30;;;;;;5112954;28;20020;-75
2022/10/06 08:50:32;;;;;;;11.63;3.38;;;17.70;79.30;;;;;;5112818;28;20035;-75
2022/10/06 08:53:17;;;;;;;14.50;2.88;;;17.60;79.30;;;;;;5112430;28;20531;-75
2022/10/06 08:55:52;;;;;;;11.13;3.00;;;17.60;79.30;;;;;;5112549;28;20112;-75
2022/10/06 08:58:45;;;;;;;12.70;3.38;;;17.60;79.30;;;;;;5112345;28;20098;-75
2022/10/06 09:01:17;;;;;;;13.05;2.80;;;17.60;79.30;;;;;;5106201;28;20027;-75
2022/10/06 09:03:47;;;;;;;10.13;2.45;;;17.60;79.30;;;;;;5092011;28;20020;-76
2022/10/06 09:06:36;;;;;;;14.20;3.47;;;17.60;79.30;;;;;;5092150;28;20107;-75
2022/10/06 09:09:32;;;;;;;9.30;2.78;;;17.60;79.20;;;;;;5103957;28;20027;-75
2022/10/06 09:12:13;;;;;;;12.63;3.38;;;17.60;79.30;;;;;;5112011;28;20043;-75
2022/10/06 09:14:48;;;;;;;13.95;2.88;;;17.60;79.30;;;;;;5097064;28;20035;-76
2022/10/06 09:17:34;;;;;;;14.80;3.03;;;17.60;79.30;;;;;;5112043;28;20019;-75
2022/10/06 09:20:31;;;;;;;12.25;3.67;;;17.60;79.20;;;;;;5095191;28;20024;-75
2022/10/06 09:22:57;;;;;;;10.95;2.97;;;17.60;79.20;;;;;;5106221;28;20031;-75
2022/10/06 09:25:26;;;;;;;8.80;3.33;;;17.60;79.30;;;;;;5095033;28;20598;-76
2022/10/06 09:27:56;;;;;;;10.48;3.15;;;17.60;79.20;;;;;;5112055;28;20051;-75
2022/10/06 09:30:22;;;;;;;7.75;2.53;;;17.60;79.20;;;;;;5095683;28;20028;-75
2022/10/06 09:32:59;;;;;;;10.30;3.28;;;17.60;79.20;;;;;;5111838;28;20027;-75
2022/10/06 09:35:29;;;;;;;10.48;2.90;;;17.60;79.30;;;;;;5095230;28;20035;-75
2022/10/06 09:38:03;;;;;;;11.63;3.17;;;17.60;79.30;;;;;;5095225;28;20429;-75
2022/10/06 09:40:36;;;;;;;11.80;3.13;;;17.60;79.30;;;;;;5095648;28;20077;-75
2022/10/06 09:43:03;;;;;;;9.90;2.78;;;17.60;79.30;;;;;;5112842;28;20023;-75
2022/10/06 09:45:30;;;;;;;11.50;2.53;;;17.60;79.30;;;;;;5094999;28;20022;-75
2022/10/06 09:48:12;;;;;;;10.57;3.17;;;17.60;79.30;;;;;;5094976;28;20023;-75
2022/10/06 09:50:38;;;;;;;7.83;2.70;;;17.50;79.30;;;;;;5096590;28;20028;-75
2022/10/06 09:53:08;;;;;;;13.07;3.63;;;17.60;79.30;;;;;;5094596;28;20053;-75
2022/10/06 09:55:36;;;;;;;7.40;2.65;;;17.60;79.30;;;;;;5111251;28;20035;-75
2022/10/06 09:58:14;;;;;;;12.13;2.83;;;17.60;79.30;;;;;;5112597;28;20028;-75
2022/10/06 10:01:01;;;;;;;8.48;2.38;;;17.60;79.30;;;;;;5094220;28;20401;-75
2022/10/06 10:03:50;;;;;;;14.95;2.95;;;17.50;79.30;;;;;;5091236;28;20043;-75
2022/10/06 10:06:26;;;;;;;11.68;2.75;;;17.60;79.30;;;;;;5091436;28;20020;-75
2022/10/06 10:09:12;;;;;;;9.15;2.40;;;17.50;79.30;;;;;;5084798;28;20015;-75
2022/10/06 10:14:21;;;;;;;10.85;2.28;;;17.50;79.30;;;;;;5111623;28;20022;-75
2022/10/06 10:16:47;;;;;;;10.82;2.72;;;17.60;79.40;;;;;;5112573;28;20102;-75
2022/10/06 10:19:31;;;;;;;8.73;3.28;;;17.50;79.30;;;;;;5094716;28;20111;-75
2022/10/06 10:21:58;;;;;;;8.13;2.33;;;17.50;79.40;;;;;;5095614;28;20155;-75
2022/10/06 10:24:50;;;;;;;10.65;3.28;;;17.50;79.40;;;;;;5094569;28;20019;-75
2022/10/06 10:27:22;;;;;;;8.95;2.38;;;17.60;79.30;;;;;;5111488;28;20020;-75
2022/10/06 10:30:00;;;;;;;11.82;3.30;;;17.50;79.30;;;;;;5094947;28;20020;-75
2022/10/06 10:32:59;;;;;;;13.23;2.88;;;17.60;79.40;;;;;;5112587;28;20026;-75
2022/10/06 10:35:28;;;;;;;9.75;3.03;;;17.60;79.30;;;;;;5112700;28;20020;-75
2022/10/06 10:38:03;;;;;;;8.20;2.60;;;17.60;79.40;;;;;;5094088;28;20060;-75
2022/10/06 10:40:39;;;;;;;10.95;2.75;;;17.50;79.40;;;;;;5111283;28;20473;-75
2022/10/06 10:43:10;;;;;;;8.82;2.72;;;17.60;79.50;;;;;;5112539;28;20039;-75
2022/10/06 10:45:45;;;;;;;9.32;2.33;;;17.60;79.50;;;;;;5112612;28;20028;-75
2022/10/06 10:48:20;;;;;;;9.55;2.78;;;17.60;79.50;;;;;;5111000;28;20065;-75
2022/10/06 10:51:00;;;;;;;7.55;2.40;;;17.60;79.40;;;;;;5094512;28;20405;-75
2022/10/06 10:53:34;;;;;;;10.77;2.67;;;17.60;79.40;;;;;;5094693;28;20436;-75
2022/10/06 10:56:00;;;;;;;7.63;2.63;;;17.60;79.50;;;;;;5110869;28;20091;-75
2022/10/06 10:58:28;;;;;;;8.93;2.40;;;17.60;79.50;;;;;;5111116;28;20525;-75
2022/10/06 11:00:57;;;;;;;8.63;2.75;;;17.50;79.40;;;;;;5107017;28;20025;-75
2022/10/06 11:03:22;;;;;;;7.22;2.30;;;17.60;79.50;;;;;;5090759;28;20016;-75
2022/10/06 11:06:06;;;;;;;7.78;2.40;;;17.60;79.50;;;;;;5090565;28;20099;-75
2022/10/06 11:08:48;;;;;;;8.82;2.72;;;17.60;79.50;;;;;;5102902;28;20024;-75
2022/10/06 11:11:42;;;;;;;8.60;2.38;;;17.60;79.50;;;;;;5097703;28;20386;-75
2022/10/06 11:14:29;;;;;;;6.93;2.25;;;17.60;79.60;;;;;;5039886;28;20082;-75
2022/10/06 11:17:02;;;;;;;9.68;2.55;;;17.60;79.60;;;;;;5052760;28;20029;-75
2022/10/06 11:19:51;;;;;;;11.40;3.42;;;17.50;79.60;;;;;;5037165;28;20075;-75
2022/10/06 11:22:42;;;;;;;7.15;2.45;;;17.50;79.70;;;;;;5038411;28;20071;-75
2022/10/06 11:25:29;;;;;;;8.18;2.50;;;17.50;79.60;;;;;;5029874;28;20037;-75
2022/10/06 11:28:07;;;;;;;6.63;2.42;;;17.50;79.60;;;;;;5036174;28;20063;-75
2022/10/06 11:30:34;;;;;;;7.30;2.63;;;17.50;79.70;;;;;;5037590;28;20053;-75
2022/10/06 11:33:09;;;;;;;8.85;2.35;;;17.50;79.70;;;;;;5036164;28;20124;-75
2022/10/06 11:35:36;;;;;;;11.75;2.45;;;17.50;79.70;;;;;;5036500;28;20033;-75
2022/10/06 11:38:35;;;;;;;7.18;1.98;;;17.50;79.70;;;;;;5035450;28;20065;-75
2022/10/06 11:41:22;;;;;;;7.32;2.22;;;17.50;79.70;;;;;;5032239;28;20029;-75
2022/10/06 11:44:18;;;;;;;9.85;2.65;;;17.50;79.70;;;;;;5035967;28;20443;-75
2022/10/06 11:46:58;;;;;;;7.57;2.58;;;17.50;79.80;;;;;;5038265;28;20076;-75
2022/10/06 11:49:31;;;;;;;8.05;2.30;;;17.50;79.70;;;;;;5036053;28;20029;-75
2022/10/06 11:52:06;;;;;;;13.60;2.30;;;17.50;79.80;;;;;;5109412;28;20127;-75
2022/10/06 11:54:44;;;;;;;7.68;2.63;;;17.60;79.80;;;;;;5115078;28;20027;-75
2022/10/06 11:57:22;;;;;;;8.15;2.70;;;17.60;79.80;;;;;;5114834;28;20019;-75
2022/10/06 11:59:54;;;;;;;8.65;2.17;;;17.60;79.90;;;;;;5115055;28;20031;-75
2022/10/06 12:02:29;;;;;;;6.15;2.05;;;17.60;79.90;;;;;;5081958;28;20025;-75
2022/10/06 12:05:13;;;;;;;6.53;1.90;;;17.60;79.90;;;;;;5094132;28;20024;-75
2022/10/06 12:07:51;;;;;;;10.25;2.40;;;17.60;79.90;;;;;;5094777;28;20051;-75
2022/10/06 12:10:30;;;;;;;5.32;2.03;;;17.60;79.90;;;;;;5114810;28;20027;-75
2022/10/06 12:13:18;;;;;;;3.60;1.73;;;17.60;79.90;;;;;;5114659;28;20020;-75
2022/10/06 12:16:07;;;;;;;7.35;2.10;;;17.60;79.90;;;;;;5113602;28;20020;-75
2022/10/06 12:18:50;;;;;;;5.45;1.73;;;17.60;80.00;;;;;;5113487;28;20029;-75
2022/10/06 12:21:35;;;;;;;7.00;2.17;;;17.60;79.90;;;;;;5113082;28;20015;-75
2022/10/06 12:24:19;;;;;;;7.28;1.88;;;17.60;80.00;;;;;;5113096;28;20008;-75
2022/10/06 12:27:25;;;;;;;5.95;1.95;;;17.60;80.00;;;;;;5114498;28;20034;-76
2022/10/06 12:30:29;;;;;;;6.55;2.00;;;17.60;80.00;;;;;;5034817;28;20021;-75
2022/10/06 12:32:58;;;;;;;8.18;2.10;;;17.60;80.00;;;;;;4972720;28;20071;-75
2022/10/06 12:35:31;;;;;;;7.13;2.50;;;17.60;80.00;;;;;;4972515;28;20124;-75
2022/10/06 12:38:17;;;;;;;5.72;2.20;;;17.60;80.00;;;;;;4971446;28;20034;-75
2022/10/06 12:40:48;;;;;;;5.63;2.10;;;17.60;80.10;;;;;;4965750;28;20134;-76
2022/10/06 12:43:13;;;;;;;5.03;2.03;;;17.60;80.10;;;;;;4972450;28;20509;-75
2022/10/06 12:46:15;;;;;;;7.85;1.85;;;17.60;80.10;;;;;;4972578;28;20066;-75
2022/10/06 12:48:58;;;;;;;13.10;2.30;;;17.60;80.10;;;;;;4972345;28;20047;-75
2022/10/06 12:51:33;;;;;;;4.15;2.00;;;17.60;80.20;;;;;;4972368;28;20059;-76
2022/10/06 12:54:10;;;;;;;7.03;1.92;;;17.60;80.20;;;;;;4972343;28;20133;-75
2022/10/06 12:56:37;;;;;;;5.30;1.92;;;17.70;80.20;;;;;;4972538;28;20109;-75
2022/10/06 12:59:34;;;;;;;4.88;1.80;;;17.70;80.20;;;;;;4972255;28;20375;-75
2022/10/06 13:02:18;;;;;;;5.97;1.77;;;17.70;80.30;;;;;;5020897;28;20088;-75
2022/10/06 13:05:00;;;;;;;8.02;2.85;;;17.70;80.30;;;;;;5030663;28;20060;-75
2022/10/06 13:07:27;;;;;;;3.85;1.58;;;17.70;80.40;;;;;;5032349;28;20486;-76
2022/10/06 13:10:13;;;;;;;6.28;1.52;;;17.70;80.40;;;;;;5110001;28;20088;-75
2022/10/06 13:12:40;;;;;;;10.50;2.20;;;17.70;80.40;;;;;;5102702;28;20035;-76
2022/10/06 13:15:16;;;;;;;7.18;1.92;;;17.70;80.40;;;;;;5112058;28;20066;-75